Azalea Ace — A8ZJ6 — position and weather

sailwx.info

Track history (hours):
 
Tides and Currents Weather Stations Pressure Air Temp Water Temp Dewpoint Dewpoint Depression Visibility Wind Speed Wind Dir Waves Ship Positions

Azalea Ace

Last reported at 2015-Jul-30 07:12 UTC. Time now 2015-Aug-01 16:14 UTC.
Position N 37°21' W 134°02'.

Length 180 m; draft 7 m.

Type: Cargo ship. MMSI: 636015228.

Date/timePositionNaut miles runAvg speedWind from/ knotsBaromVisibWave heightAir tempDewpointWater temp
2015-Jul-30 07:12N 37°21' W 134°02'3118.3
2015-Jul-30 05:29N 37°07' W 133°27'1718.4
2015-Jul-30 04:33N 36°60' W 133°07'1818.4
2015-Jul-30 03:33N 36°52' W 132°47'1918.4
2015-Jul-30 02:33N 36°43' W 132°26'21517.8
2015-Jul-29 14:27N 35°02' W 128°32'4117.3
2015-Jul-29 12:05N 34°41' W 127°49'917.0
2015-Jul-29 11:32N 34°36' W 127°40'1717.0
2015-Jul-29 10:33N 34°27' W 127°22'5316.8
2015-Jul-29 07:23N 34°00' W 126°27'1417.2
2015-Jul-29 06:33N 33°53' W 126°12'1717.2
2015-Jul-29 05:33N 33°44' W 125°54'1717.2
2015-Jul-29 04:33N 33°35' W 125°37'1717.2
2015-Jul-29 03:33N 33°26' W 125°19'1817.3
2015-Jul-29 02:32N 33°17' W 125°01'1717.0
2015-Jul-29 01:33N 33°09' W 124°44'1716.7
2015-Jul-29 00:33N 33°00' W 124°27'1616.3
2015-Jul-28 23:33N 32°53' W 124°09'1616.4
2015-Jul-28 22:33N 32°49' W 123°51'1716.8
2015-Jul-28 21:33N 32°45' W 123°31'1716.9
2015-Jul-28 20:33N 32°43' W 123°11'1716.5
2015-Jul-28 19:33N 32°39' W 122°52'1616.6
2015-Jul-28 18:33N 32°35' W 122°33'1716.5
2015-Jul-28 17:33N 32°32' W 122°14'1616.3
2015-Jul-28 16:33N 32°28' W 121°55'7015.5
2015-Jul-28 12:03N 32°54' W 120°38'1516.0
2015-Jul-28 11:07N 32°54' W 120°20'1116.1
2015-Jul-28 10:28N 32°54' W 120°08'1516.6
2015-Jul-28 09:33N 32°54' W 119°50'1716.8
2015-Jul-28 08:33N 32°58' W 119°30'1717.4
2015-Jul-28 07:33N 33°04' W 119°11'1717.1
2015-Jul-28 06:33N 33°08' W 118°51'1211.9
2015-Jul-28 05:33N 33°10' W 118°37'1111.1
2015-Jul-28 04:33N 33°12' W 118°24'1111.3
2015-Jul-28 03:33N 33°15' W 118°11'9 9.4
2015-Jul-28 02:33N 33°24' W 118°09'1211.8
2015-Jul-28 01:33N 33°35' W 118°13'9 9.0
2015-Jul-28 00:33N 33°44' W 118°17'2 2.2
2015-Jul-27 23:32N 33°46' W 118°15'0 0.0
2015-Jul-27 22:32N 33°46' W 118°15'0 0.0
2015-Jul-27 21:32N 33°46' W 118°15'0 0.0
2015-Jul-27 20:32N 33°46' W 118°15'0 0.0
2015-Jul-27 19:32N 33°46' W 118°15'0 0.0
2015-Jul-27 18:32N 33°46' W 118°15'0 0.0
2015-Jul-27 17:32N 33°46' W 118°15'0 0.0
2015-Jul-27 16:32N 33°46' W 118°15'0 0.0
2015-Jul-27 15:32N 33°46' W 118°15'0 0.0
2015-Jul-27 14:32N 33°46' W 118°15'0 0.0
2015-Jul-27 13:32N 33°46' W 118°15'0 0.0
2015-Jul-27 12:32N 33°46' W 118°15'0 0.0
2015-Jul-27 11:32N 33°46' W 118°15'0 0.0
2015-Jul-27 10:32N 33°46' W 118°15'0 0.0
2015-Jul-27 09:32N 33°46' W 118°15'0 0.0
2015-Jul-27 08:32N 33°46' W 118°15'0 0.0
2015-Jul-27 07:32N 33°46' W 118°15'0 0.0
2015-Jul-27 06:32N 33°46' W 118°15'0 0.0
2015-Jul-27 05:32N 33°46' W 118°15'0 0.0
2015-Jul-27 04:32N 33°46' W 118°15'0 0.0
2015-Jul-27 03:32N 33°46' W 118°15'0 0.0
2015-Jul-27 02:32N 33°46' W 118°15'0 0.0
2015-Jul-27 01:33N 33°46' W 118°15'2 1.7
2015-Jul-27 00:33N 33°45' W 118°17'8 7.9
2015-Jul-26 23:33N 33°38' W 118°12'8 8.3
2015-Jul-26 22:33N 33°31' W 118°07'9 9.1
2015-Jul-26 21:34N 33°22' W 118°04'8 7.8
2015-Jul-26 20:33N 33°16' W 118°09'9 9.3
2015-Jul-26 19:33N 33°12' W 118°20'9 9.3
2015-Jul-26 18:33N 33°11' W 118°31'9 9.4
2015-Jul-26 17:33N 33°09' W 118°42'9 8.6
2015-Jul-26 16:33N 33°08' W 118°52'1010.5
2015-Jul-26 15:33N 33°06' W 119°04'1110.5
2015-Jul-26 14:33N 33°02' W 119°16'1010.0
2015-Jul-26 13:33N 32°59' W 119°27'1312.6
2015-Jul-26 12:33N 32°55' W 119°41'1413.9
2015-Jul-26 11:33N 32°53' W 119°58'1413.6
2015-Jul-26 10:33N 32°52' W 120°14'1413.7
2015-Jul-26 09:33N 32°51' W 120°30'1713.9
2015-Jul-26 08:20N 32°49' W 120°50'1114.1
2015-Jul-26 07:33N 32°48' W 121°03'1414.1
2015-Jul-26 06:33N 32°47' W 121°20'1714.0
2015-Jul-26 05:22N 32°45' W 121°40'4013.8
2015-Jul-26 02:26N 32°42' W 122°27'2913.8
2015-Jul-26 00:22N 32°38' W 123°01'1113.4
2015-Jul-25 23:33N 32°36' W 123°14'1212.2
2015-Jul-25 22:32N 32°34' W 123°28'1212.1
2015-Jul-25 21:33N 32°33' W 123°43'1212.3
2015-Jul-25 20:33N 32°32' W 123°57'1412.3
2015-Jul-25 19:26N 32°31' W 124°13'8 1.4
2015-Jul-25 13:24N 32°38' W 124°18'1 1.3
2015-Jul-25 12:28N 32°39' W 124°19'1 1.4
2015-Jul-25 11:32N 32°40' W 124°20'1 1.4
2015-Jul-25 10:33N 32°41' W 124°21'1 1.3
2015-Jul-25 09:30N 32°42' W 124°22'1 1.2
2015-Jul-25 08:31N 32°43' W 124°23'1 1.2
2015-Jul-25 07:33N 32°44' W 124°23'1 1.1
2015-Jul-25 06:33N 32°45' W 124°24'1 1.1
2015-Jul-25 05:33N 32°46' W 124°25'1 1.0
2015-Jul-25 04:33N 32°47' W 124°25'1 0.9
2015-Jul-25 03:32N 32°48' W 124°26'1 1.1
2015-Jul-25 02:33N 32°48' W 124°27'1 1.0
2015-Jul-25 01:33N 32°49' W 124°27'1 1.0
2015-Jul-25 00:33N 32°50' W 124°28'1 1.0
2015-Jul-24 23:33N 32°51' W 124°28'1 0.9
2015-Jul-24 22:31N 32°52' W 124°29'1 1.1
2015-Jul-24 21:31N 32°53' W 124°28'1 1.3
2015-Jul-24 20:33N 32°54' W 124°28'2 2.3
2015-Jul-24 19:33N 32°56' W 124°28'1110.9
2015-Jul-24 18:33N 33°06' W 124°33'1313.1
2015-Jul-24 17:33N 33°14' W 124°46'1313.2
2015-Jul-24 16:33N 33°21' W 124°59'1413.3
2015-Jul-24 15:29N 33°29' W 125°13'1213.3
2015-Jul-24 14:33N 33°37' W 125°25'1313.2
2015-Jul-24 13:33N 33°44' W 125°38'1313.0
2015-Jul-24 12:33N 33°52' W 125°51'1712.8
2015-Jul-24 11:13N 34°02' W 126°07'1012.9
2015-Jul-24 10:29N 34°08' W 126°17'1212.9
2015-Jul-24 09:33N 34°15' W 126°28'1812.8
2015-Jul-24 08:07N 34°26' W 126°46'  
Track history (hours):
 
Tides and Currents Weather Stations Pressure Air Temp Water Temp Dewpoint Dewpoint Depression Visibility Wind Speed Wind Dir Waves Ship Positions

Azalea Ace

Last reported at 2015-Jul-30 07:12 UTC. Time now 2015-Aug-01 16:14 UTC.
Position N 37°21' W 134°02'.

Length 180 m; draft 7 m.

Type: Cargo ship. MMSI: 636015228.

Date/timePositionNaut miles runAvg speedWind from/ knotsBaromVisibWave heightAir tempDewpointWater temp
2015-Jul-30 07:12N 37°21' W 134°02'3118.3
2015-Jul-30 05:29N 37°07' W 133°27'1718.4
2015-Jul-30 04:33N 36°60' W 133°07'1818.4
2015-Jul-30 03:33N 36°52' W 132°47'1918.4
2015-Jul-30 02:33N 36°43' W 132°26'21517.8
2015-Jul-29 14:27N 35°02' W 128°32'4117.3
2015-Jul-29 12:05N 34°41' W 127°49'917.0
2015-Jul-29 11:32N 34°36' W 127°40'1717.0
2015-Jul-29 10:33N 34°27' W 127°22'5316.8
2015-Jul-29 07:23N 34°00' W 126°27'1417.2
2015-Jul-29 06:33N 33°53' W 126°12'1717.2
2015-Jul-29 05:33N 33°44' W 125°54'1717.2
2015-Jul-29 04:33N 33°35' W 125°37'1717.2
2015-Jul-29 03:33N 33°26' W 125°19'1817.3
2015-Jul-29 02:32N 33°17' W 125°01'1717.0
2015-Jul-29 01:33N 33°09' W 124°44'1716.7
2015-Jul-29 00:33N 33°00' W 124°27'1616.3
2015-Jul-28 23:33N 32°53' W 124°09'1616.4
2015-Jul-28 22:33N 32°49' W 123°51'1716.8
2015-Jul-28 21:33N 32°45' W 123°31'1716.9
2015-Jul-28 20:33N 32°43' W 123°11'1716.5
2015-Jul-28 19:33N 32°39' W 122°52'1616.6
2015-Jul-28 18:33N 32°35' W 122°33'1716.5
2015-Jul-28 17:33N 32°32' W 122°14'1616.3
2015-Jul-28 16:33N 32°28' W 121°55'7015.5
2015-Jul-28 12:03N 32°54' W 120°38'1516.0
2015-Jul-28 11:07N 32°54' W 120°20'1116.1
2015-Jul-28 10:28N 32°54' W 120°08'1516.6
2015-Jul-28 09:33N 32°54' W 119°50'1716.8
2015-Jul-28 08:33N 32°58' W 119°30'1717.4
2015-Jul-28 07:33N 33°04' W 119°11'1717.1
2015-Jul-28 06:33N 33°08' W 118°51'1211.9
2015-Jul-28 05:33N 33°10' W 118°37'1111.1
2015-Jul-28 04:33N 33°12' W 118°24'1111.3
2015-Jul-28 03:33N 33°15' W 118°11'9 9.4
2015-Jul-28 02:33N 33°24' W 118°09'1211.8
2015-Jul-28 01:33N 33°35' W 118°13'9 9.0
2015-Jul-28 00:33N 33°44' W 118°17'2 2.2
2015-Jul-27 23:32N 33°46' W 118°15'0 0.0
2015-Jul-27 22:32N 33°46' W 118°15'0 0.0
2015-Jul-27 21:32N 33°46' W 118°15'0 0.0
2015-Jul-27 20:32N 33°46' W 118°15'0 0.0
2015-Jul-27 19:32N 33°46' W 118°15'0 0.0
2015-Jul-27 18:32N 33°46' W 118°15'0 0.0
2015-Jul-27 17:32N 33°46' W 118°15'0 0.0
2015-Jul-27 16:32N 33°46' W 118°15'0 0.0
2015-Jul-27 15:32N 33°46' W 118°15'0 0.0
2015-Jul-27 14:32N 33°46' W 118°15'0 0.0
2015-Jul-27 13:32N 33°46' W 118°15'0 0.0
2015-Jul-27 12:32N 33°46' W 118°15'0 0.0
2015-Jul-27 11:32N 33°46' W 118°15'0 0.0
2015-Jul-27 10:32N 33°46' W 118°15'0 0.0
2015-Jul-27 09:32N 33°46' W 118°15'0 0.0
2015-Jul-27 08:32N 33°46' W 118°15'0 0.0
2015-Jul-27 07:32N 33°46' W 118°15'0 0.0
2015-Jul-27 06:32N 33°46' W 118°15'0 0.0
2015-Jul-27 05:32N 33°46' W 118°15'0 0.0
2015-Jul-27 04:32N 33°46' W 118°15'0 0.0
2015-Jul-27 03:32N 33°46' W 118°15'0 0.0
2015-Jul-27 02:32N 33°46' W 118°15'0 0.0
2015-Jul-27 01:33N 33°46' W 118°15'2 1.7
2015-Jul-27 00:33N 33°45' W 118°17'8 7.9
2015-Jul-26 23:33N 33°38' W 118°12'8 8.3
2015-Jul-26 22:33N 33°31' W 118°07'9 9.1
2015-Jul-26 21:34N 33°22' W 118°04'8 7.8
2015-Jul-26 20:33N 33°16' W 118°09'9 9.3
2015-Jul-26 19:33N 33°12' W 118°20'9 9.3
2015-Jul-26 18:33N 33°11' W 118°31'9 9.4
2015-Jul-26 17:33N 33°09' W 118°42'9 8.6
2015-Jul-26 16:33N 33°08' W 118°52'1010.5
2015-Jul-26 15:33N 33°06' W 119°04'1110.5
2015-Jul-26 14:33N 33°02' W 119°16'1010.0
2015-Jul-26 13:33N 32°59' W 119°27'1312.6
2015-Jul-26 12:33N 32°55' W 119°41'1413.9
2015-Jul-26 11:33N 32°53' W 119°58'1413.6
2015-Jul-26 10:33N 32°52' W 120°14'1413.7
2015-Jul-26 09:33N 32°51' W 120°30'1713.9
2015-Jul-26 08:20N 32°49' W 120°50'1114.1
2015-Jul-26 07:33N 32°48' W 121°03'1414.1
2015-Jul-26 06:33N 32°47' W 121°20'1714.0
2015-Jul-26 05:22N 32°45' W 121°40'4013.8
2015-Jul-26 02:26N 32°42' W 122°27'2913.8
2015-Jul-26 00:22N 32°38' W 123°01'1113.4
2015-Jul-25 23:33N 32°36' W 123°14'1212.2
2015-Jul-25 22:32N 32°34' W 123°28'1212.1
2015-Jul-25 21:33N 32°33' W 123°43'1212.3
2015-Jul-25 20:33N 32°32' W 123°57'1412.3
2015-Jul-25 19:26N 32°31' W 124°13'8 1.4
2015-Jul-25 13:24N 32°38' W 124°18'1 1.3
2015-Jul-25 12:28N 32°39' W 124°19'1 1.4
2015-Jul-25 11:32N 32°40' W 124°20'1 1.4
2015-Jul-25 10:33N 32°41' W 124°21'1 1.3
2015-Jul-25 09:30N 32°42' W 124°22'1 1.2
2015-Jul-25 08:31N 32°43' W 124°23'1 1.2
2015-Jul-25 07:33N 32°44' W 124°23'1 1.1
2015-Jul-25 06:33N 32°45' W 124°24'1 1.1
2015-Jul-25 05:33N 32°46' W 124°25'1 1.0
2015-Jul-25 04:33N 32°47' W 124°25'1 0.9
2015-Jul-25 03:32N 32°48' W 124°26'1 1.1
2015-Jul-25 02:33N 32°48' W 124°27'1 1.0
2015-Jul-25 01:33N 32°49' W 124°27'1 1.0
2015-Jul-25 00:33N 32°50' W 124°28'1 1.0
2015-Jul-24 23:33N 32°51' W 124°28'1 0.9
2015-Jul-24 22:31N 32°52' W 124°29'1 1.1
2015-Jul-24 21:31N 32°53' W 124°28'1 1.3
2015-Jul-24 20:33N 32°54' W 124°28'2 2.3
2015-Jul-24 19:33N 32°56' W 124°28'1110.9
2015-Jul-24 18:33N 33°06' W 124°33'1313.1
2015-Jul-24 17:33N 33°14' W 124°46'1313.2
2015-Jul-24 16:33N 33°21' W 124°59'1413.3
2015-Jul-24 15:29N 33°29' W 125°13'1213.3
2015-Jul-24 14:33N 33°37' W 125°25'1313.2
2015-Jul-24 13:33N 33°44' W 125°38'1313.0
2015-Jul-24 12:33N 33°52' W 125°51'1712.8
2015-Jul-24 11:13N 34°02' W 126°07'1012.9
2015-Jul-24 10:29N 34°08' W 126°17'1212.9
2015-Jul-24 09:33N 34°15' W 126°28'1812.8
2015-Jul-24 08:07N 34°26' W 126°46'  

Dump ship's entire track history